Time;durP1;ratioP1;P1;durP2;ratioP2;P2;SDS_P1;SDS_P2;PMS_P1;PMS_P2;Temp;Humidity;BMP_temperature;BMP_pressure;BME280_temperature;BME280_humidity;BME280_pressure;Samples;Min_cycle;Max_cycle;Signal;HPM_P1;HPM_P2
2023/04/02 00:00:09;;;;;;;0.97;0.73;;;7.20;99.90;;;;;;4937454;28;20039;-83
2023/04/02 00:03:03;;;;;;;0.88;0.57;;;7.20;99.90;;;;;;4936910;29;20031;-83
2023/04/02 00:05:49;;;;;;;1.10;0.70;;;7.20;99.90;;;;;;4937978;29;20042;-83
2023/04/02 00:08:53;;;;;;;2.70;1.00;;;7.20;99.90;;;;;;4936555;29;20509;-82
2023/04/02 00:11:37;;;;;;;1.50;0.77;;;7.20;99.90;;;;;;4897861;29;20909;-82
2023/04/02 00:14:12;;;;;;;2.10;0.80;;;7.20;99.90;;;;;;4934519;29;20078;-83
2023/04/02 00:16:37;;;;;;;3.70;1.02;;;7.20;99.90;;;;;;4937422;29;20122;-83
2023/04/02 00:19:06;;;;;;;2.93;0.90;;;7.20;99.90;;;;;;4937055;29;20031;-82
2023/04/02 00:21:35;;;;;;;3.57;1.00;;;7.10;99.90;;;;;;4936482;28;20058;-82
2023/04/02 00:24:06;;;;;;;0.90;0.70;;;7.10;99.90;;;;;;4936947;28;20050;-83
2023/04/02 00:26:41;;;;;;;1.23;0.77;;;7.10;99.90;;;;;;4936936;29;20035;-82
2023/04/02 00:29:10;;;;;;;1.63;0.70;;;7.10;99.90;;;;;;4936622;29;20031;-82
2023/04/02 00:31:39;;;;;;;2.93;0.87;;;7.10;99.90;;;;;;4936773;29;20046;-83
2023/04/02 00:34:07;;;;;;;1.57;0.80;;;7.20;99.90;;;;;;4936440;29;20509;-83
2023/04/02 00:36:34;;;;;;;1.60;1.20;;;7.10;99.90;;;;;;4936884;28;20094;-83
2023/04/02 00:39:03;;;;;;;1.30;0.70;;;7.10;99.90;;;;;;4936317;29;20019;-83
2023/04/02 00:41:34;;;;;;;1.63;0.93;;;7.10;99.90;;;;;;4936243;28;20507;-83
2023/04/02 00:44:01;;;;;;;2.10;0.80;;;7.10;99.90;;;;;;4936261;29;20043;-83
2023/04/02 00:46:45;;;;;;;1.10;0.60;;;7.10;99.90;;;;;;4936846;29;20027;-83
2023/04/02 00:49:33;;;;;;;3.33;0.80;;;7.10;99.90;;;;;;4936278;29;20041;-83
2023/04/02 00:52:10;;;;;;;2.93;0.90;;;7.10;99.90;;;;;;4936562;28;20501;-82
2023/04/02 00:54:50;;;;;;;1.27;0.70;;;7.10;99.90;;;;;;4936417;29;20502;-82
2023/04/02 00:57:24;;;;;;;3.53;1.10;;;7.10;99.90;;;;;;4936070;29;20038;-83
2023/04/02 01:00:13;;;;;;;0.90;0.70;;;7.10;99.90;;;;;;4936210;29;20947;-83
2023/04/02 01:02:39;;;;;;;1.13;0.70;;;7.10;99.90;;;;;;4936106;28;20046;-82
2023/04/02 01:05:14;;;;;;;1.73;0.70;;;7.10;99.90;;;;;;4936692;29;20032;-82
2023/04/02 01:07:48;;;;;;;1.95;0.90;;;7.10;99.90;;;;;;4935772;29;21436;-82
2023/04/02 01:10:35;;;;;;;0.80;0.70;;;7.20;99.90;;;;;;4936372;29;20078;-82
2023/04/02 01:13:10;;;;;;;1.33;0.60;;;7.20;99.90;;;;;;4935547;29;20399;-83
2023/04/02 01:15:42;;;;;;;1.50;0.70;;;7.20;99.90;;;;;;4936254;28;20028;-82
2023/04/02 01:18:25;;;;;;;2.67;0.90;;;7.20;99.90;;;;;;4934994;29;20027;-82
2023/04/02 01:21:17;;;;;;;1.90;0.93;;;7.20;99.90;;;;;;4935565;29;20050;-82
2023/04/02 01:23:55;;;;;;;4.63;0.90;;;7.20;99.90;;;;;;4935794;29;20380;-82
2023/04/02 01:26:26;;;;;;;1.20;0.80;;;7.20;99.90;;;;;;4935830;29;20027;-83
2023/04/02 01:29:44;;;;;;;1.90;0.87;;;7.20;99.90;;;;;;4935572;29;20035;-83
2023/04/02 01:32:16;;;;;;;2.00;0.80;;;7.20;99.90;;;;;;4930704;29;21396;-83
2023/04/02 01:34:44;;;;;;;2.60;1.00;;;7.20;99.90;;;;;;4935581;29;20027;-82
2023/04/02 01:37:31;;;;;;;1.47;0.80;;;7.20;99.90;;;;;;4935382;29;20024;-83
2023/04/02 01:40:16;;;;;;;1.03;0.83;;;7.20;99.90;;;;;;4935692;29;20046;-82
2023/04/02 01:42:47;;;;;;;1.70;1.00;;;7.20;99.90;;;;;;4935218;29;20517;-83
2023/04/02 01:45:16;;;;;;;1.27;0.67;;;7.20;99.90;;;;;;4935549;29;20027;-83
2023/04/02 01:47:43;;;;;;;2.77;0.90;;;7.10;99.90;;;;;;4934635;29;20043;-83
2023/04/02 01:50:30;;;;;;;1.93;1.00;;;7.10;99.90;;;;;;4935422;29;20031;-82
2023/04/02 01:53:02;;;;;;;2.90;0.80;;;7.20;99.90;;;;;;4934942;29;20379;-83
2023/04/02 01:55:52;;;;;;;0.90;0.70;;;7.20;99.90;;;;;;4935249;29;21497;-83
2023/04/02 01:58:25;;;;;;;2.07;0.90;;;7.20;99.90;;;;;;4930485;29;20047;-83
2023/04/02 02:01:05;;;;;;;1.47;0.83;;;7.10;99.90;;;;;;4935523;29;20090;-83
2023/04/02 02:03:32;;;;;;;1.60;0.70;;;7.20;99.90;;;;;;4935035;29;20032;-83
2023/04/02 02:05:58;;;;;;;1.83;0.70;;;7.10;99.90;;;;;;4934158;29;20526;-83
2023/04/02 02:08:44;;;;;;;1.50;0.80;;;7.10;99.90;;;;;;4934949;29;20031;-83
2023/04/02 02:11:15;;;;;;;2.93;0.90;;;7.20;99.90;;;;;;4935261;29;20040;-83
2023/04/02 02:13:57;;;;;;;3.17;1.00;;;7.10;99.90;;;;;;4934869;29;20042;-83
2023/04/02 02:16:26;;;;;;;1.30;0.80;;;7.20;99.90;;;;;;4934881;29;20054;-83
2023/04/02 02:18:55;;;;;;;2.00;0.83;;;7.20;99.90;;;;;;4934727;28;20031;-83
2023/04/02 02:21:37;;;;;;;2.93;0.80;;;7.20;99.90;;;;;;4936962;29;20039;-83
2023/04/02 02:24:04;;;;;;;2.33;0.90;;;7.10;99.90;;;;;;4938206;29;20118;-83
2023/04/02 02:26:32;;;;;;;1.40;0.70;;;7.10;99.90;;;;;;4936380;29;20673;-83
2023/04/02 02:29:00;;;;;;;3.00;1.10;;;7.10;99.90;;;;;;4936737;29;20035;-83
2023/04/02 02:31:32;;;;;;;1.87;0.90;;;7.10;99.90;;;;;;4937431;29;20115;-83
2023/04/02 02:34:05;;;;;;;2.97;0.90;;;7.10;99.90;;;;;;4936346;28;21506;-83
2023/04/02 02:36:38;;;;;;;1.47;0.80;;;7.10;99.90;;;;;;4936588;29;20035;-83
2023/04/02 02:39:15;;;;;;;1.00;0.70;;;7.10;99.90;;;;;;4936399;29;20023;-84
2023/04/02 02:41:55;;;;;;;2.10;0.83;;;7.10;99.90;;;;;;4935549;29;20142;-83
2023/04/02 02:44:32;;;;;;;1.03;0.77;;;7.10;99.90;;;;;;4934472;29;20138;-83
2023/04/02 02:47:02;;;;;;;1.47;0.90;;;7.10;99.90;;;;;;4934891;29;20090;-83
2023/04/02 02:49:34;;;;;;;2.70;0.80;;;7.10;99.90;;;;;;4934294;29;20150;-83
2023/04/02 02:52:15;;;;;;;2.87;0.90;;;7.10;99.90;;;;;;4934208;29;20040;-83
2023/04/02 02:54:45;;;;;;;2.23;0.80;;;7.10;99.90;;;;;;4934200;29;20024;-83
2023/04/02 02:57:17;;;;;;;1.37;0.77;;;7.10;99.90;;;;;;4934141;29;20034;-83
2023/04/02 02:59:44;;;;;;;0.90;0.80;;;7.10;99.90;;;;;;4933893;29;20165;-83
2023/04/02 03:02:10;;;;;;;0.73;0.73;;;7.10;99.90;;;;;;4933865;29;20090;-83
2023/04/02 03:04:37;;;;;;;3.13;0.73;;;7.10;99.90;;;;;;4934204;29;20031;-83
2023/04/02 03:07:04;;;;;;;2.50;0.93;;;7.10;99.90;;;;;;4934126;29;20093;-83
2023/04/02 03:09:36;;;;;;;2.20;0.83;;;7.10;99.90;;;;;;4933609;29;20823;-83
2023/04/02 03:12:02;;;;;;;1.23;0.60;;;7.10;99.90;;;;;;4933994;29;20474;-83
2023/04/02 03:14:34;;;;;;;2.70;0.73;;;7.00;99.90;;;;;;4933879;29;20044;-83
2023/04/02 03:17:24;;;;;;;2.43;0.90;;;7.00;99.90;;;;;;4933159;29;20039;-83
2023/04/02 03:20:00;;;;;;;3.37;1.03;;;7.10;99.90;;;;;;4933472;28;20082;-83
2023/04/02 03:22:34;;;;;;;1.73;0.90;;;7.00;99.90;;;;;;4933381;29;20046;-83
2023/04/02 03:25:15;;;;;;;1.75;0.80;;;7.10;99.90;;;;;;4933832;29;20027;-82
2023/04/02 03:27:45;;;;;;;1.43;0.80;;;7.00;99.90;;;;;;4933749;29;20097;-83
2023/04/02 03:30:37;;;;;;;2.83;0.70;;;7.00;99.90;;;;;;4933927;29;20548;-83
2023/04/02 03:33:10;;;;;;;2.77;1.00;;;7.00;99.90;;;;;;4933165;29;20035;-83
2023/04/02 03:35:59;;;;;;;2.97;0.90;;;6.90;99.90;;;;;;4933832;29;21854;-83
2023/04/02 03:38:30;;;;;;;3.03;0.70;;;6.90;99.90;;;;;;4933153;29;20113;-83
2023/04/02 03:41:20;;;;;;;1.43;0.90;;;6.90;99.90;;;;;;4933722;28;20715;-83
2023/04/02 03:43:49;;;;;;;1.80;0.80;;;6.90;99.90;;;;;;4933455;29;20066;-84
2023/04/02 03:46:44;;;;;;;1.13;0.70;;;6.90;99.90;;;;;;4933947;29;20035;-84
2023/04/02 03:49:17;;;;;;;2.00;0.80;;;6.80;99.90;;;;;;4933415;29;20153;-83
2023/04/02 03:52:01;;;;;;;2.37;1.00;;;6.80;99.90;;;;;;4933815;29;20151;-83
2023/04/02 03:54:27;;;;;;;2.90;0.77;;;6.80;99.90;;;;;;4933260;28;20031;-84
2023/04/02 03:56:53;;;;;;;2.57;0.80;;;6.80;99.90;;;;;;4933794;29;20059;-83
2023/04/02 03:59:43;;;;;;;3.10;0.90;;;6.80;99.90;;;;;;4933063;29;20460;-83
2023/04/02 04:02:33;;;;;;;1.10;0.80;;;6.80;99.90;;;;;;4933351;29;20036;-84
2023/04/02 04:05:00;;;;;;;1.30;0.70;;;6.80;99.90;;;;;;4919877;29;20052;-84
2023/04/02 04:07:37;;;;;;;2.67;0.80;;;6.80;99.90;;;;;;4933545;29;20035;-84
2023/04/02 04:10:06;;;;;;;2.30;0.90;;;6.80;99.90;;;;;;4933631;29;20042;-83
2023/04/02 04:12:45;;;;;;;2.07;0.80;;;6.80;99.90;;;;;;4932987;29;20054;-83
2023/04/02 04:15:36;;;;;;;3.77;1.03;;;6.80;99.90;;;;;;4933615;28;20138;-83
2023/04/02 04:18:36;;;;;;;2.20;0.80;;;6.80;99.90;;;;;;4933210;29;20036;-83
2023/04/02 04:21:11;;;;;;;1.77;0.70;;;6.80;99.90;;;;;;4919048;29;20044;-83
2023/04/02 04:23:39;;;;;;;1.73;0.80;;;6.80;99.90;;;;;;4917743;29;20036;-83
2023/04/02 04:26:11;;;;;;;1.87;0.80;;;6.70;99.90;;;;;;4933559;29;20877;-82
2023/04/02 04:28:57;;;;;;;1.30;0.80;;;6.70;99.90;;;;;;4934512;28;20035;-83
2023/04/02 04:31:45;;;;;;;0.87;0.77;;;6.70;99.90;;;;;;4936895;29;20492;-83
2023/04/02 04:34:24;;;;;;;2.27;0.87;;;6.70;99.90;;;;;;4936706;29;20339;-83
2023/04/02 04:36:53;;;;;;;1.83;0.80;;;6.60;99.90;;;;;;4936538;29;20035;-83
2023/04/02 04:39:52;;;;;;;1.57;0.70;;;6.60;99.90;;;;;;4936452;29;20061;-83
2023/04/02 04:42:25;;;;;;;2.17;0.70;;;6.60;99.90;;;;;;4936612;29;20055;-83
2023/04/02 04:44:57;;;;;;;1.20;0.87;;;6.60;99.90;;;;;;4937235;29;20871;-83
2023/04/02 04:47:34;;;;;;;1.53;0.87;;;6.60;99.90;;;;;;4936394;29;20440;-83
2023/04/02 04:50:12;;;;;;;1.10;0.70;;;6.60;99.90;;;;;;4936572;29;20489;-83
2023/04/02 04:52:41;;;;;;;1.90;0.90;;;6.60;99.90;;;;;;4919324;29;20031;-83
2023/04/02 04:55:29;;;;;;;1.00;0.80;;;6.60;99.90;;;;;;4933854;29;20055;-83
2023/04/02 04:58:02;;;;;;;2.03;0.73;;;6.50;99.90;;;;;;4928021;29;20051;-83
2023/04/02 05:00:34;;;;;;;2.53;0.87;;;6.50;99.90;;;;;;4935104;28;20039;-83
2023/04/02 05:03:10;;;;;;;0.90;0.80;;;6.50;99.90;;;;;;4934432;28;20035;-82
2023/04/02 05:05:38;;;;;;;1.87;0.90;;;6.60;99.90;;;;;;4936085;29;20027;-83
2023/04/02 05:08:18;;;;;;;2.10;0.90;;;6.60;99.90;;;;;;4935286;29;20036;-83
2023/04/02 05:10:50;;;;;;;2.63;0.73;;;6.60;99.90;;;;;;4935711;29;20104;-83
2023/04/02 05:13:30;;;;;;;1.93;1.10;;;6.60;99.90;;;;;;4934409;29;20027;-83
2023/04/02 05:16:22;;;;;;;3.37;0.90;;;6.60;99.90;;;;;;4936232;29;20035;-83
2023/04/02 05:19:09;;;;;;;4.33;1.00;;;6.60;99.90;;;;;;4934400;29;20497;-83
2023/04/02 05:21:49;;;;;;;1.47;0.90;;;6.60;99.90;;;;;;4934259;29;20788;-83
2023/04/02 05:24:40;;;;;;;3.93;0.97;;;6.60;99.90;;;;;;4934442;29;20035;-83
2023/04/02 05:27:20;;;;;;;1.10;0.70;;;6.60;99.90;;;;;;4934100;29;20122;-83
2023/04/02 05:29:56;;;;;;;3.50;1.00;;;6.50;99.90;;;;;;4934896;29;20173;-83
2023/04/02 05:32:30;;;;;;;1.37;0.70;;;6.50;99.90;;;;;;4934830;29;20057;-84
2023/04/02 05:34:56;;;;;;;1.90;0.90;;;6.50;99.90;;;;;;4935091;29;20055;-83
2023/04/02 05:37:25;;;;;;;1.67;0.97;;;6.50;99.90;;;;;;4919259;29;20122;-84
2023/04/02 05:39:56;;;;;;;1.17;0.90;;;6.60;99.90;;;;;;4933739;28;20091;-84
2023/04/02 05:42:31;;;;;;;1.90;1.00;;;6.50;99.90;;;;;;4935061;28;20069;-84
2023/04/02 05:45:15;;;;;;;6.75;1.13;;;6.50;99.90;;;;;;4935148;29;20039;-84
2023/04/02 05:47:43;;;;;;;4.37;1.00;;;6.60;99.90;;;;;;4934152;29;20039;-84
2023/04/02 05:50:08;;;;;;;1.77;0.90;;;6.60;99.90;;;;;;4934954;28;20032;-83
2023/04/02 05:53:13;;;;;;;3.60;0.80;;;6.60;99.90;;;;;;4934063;29;20517;-83
2023/04/02 05:55:42;;;;;;;2.00;0.90;;;6.70;99.90;;;;;;4925078;29;20050;-85
2023/04/02 05:58:24;;;;;;;1.97;0.90;;;6.60;99.90;;;;;;4917616;29;20405;-83
2023/04/02 06:00:58;;;;;;;0.80;0.77;;;6.60;99.90;;;;;;4933061;29;20040;-82
2023/04/02 06:03:50;;;;;;;2.10;0.90;;;6.70;99.90;;;;;;4934399;29;20028;-82
2023/04/02 06:06:38;;;;;;;4.30;1.00;;;6.70;99.90;;;;;;4934863;29;20048;-83
2023/04/02 06:09:26;;;;;;;3.00;1.37;;;6.80;99.90;;;;;;4933487;29;20028;-82
2023/04/02 06:12:21;;;;;;;1.43;0.90;;;6.80;99.90;;;;;;4934879;29;20051;-82
2023/04/02 06:14:47;;;;;;;3.20;1.83;;;6.70;99.90;;;;;;4923740;29;20050;-82
2023/04/02 06:17:18;;;;;;;1.70;1.00;;;6.80;99.90;;;;;;4934448;29;20041;-82
2023/04/02 06:19:45;;;;;;;1.50;0.87;;;6.80;99.90;;;;;;4934512;28;20099;-81
2023/04/02 06:22:30;;;;;;;1.57;0.80;;;6.80;99.90;;;;;;4933791;29;20047;-81
2023/04/02 06:25:09;;;;;;;1.80;0.90;;;6.80;99.90;;;;;;4935176;28;20087;-81
2023/04/02 06:27:37;;;;;;;1.10;0.77;;;6.90;99.90;;;;;;4934069;29;20036;-81
2023/04/02 06:30:12;;;;;;;5.13;1.13;;;6.90;99.90;;;;;;4916293;29;20077;-81
2023/04/02 06:32:38;;;;;;;2.13;0.93;;;6.90;99.90;;;;;;4932491;28;20094;-81
2023/04/02 06:35:04;;;;;;;2.00;0.93;;;6.90;99.90;;;;;;4934630;28;20023;-81
2023/04/02 06:37:35;;;;;;;2.00;0.90;;;7.00;99.90;;;;;;4932625;29;20518;-80
2023/04/02 06:40:02;;;;;;;2.47;1.00;;;7.00;99.90;;;;;;4934035;29;21499;-82
2023/04/02 06:42:37;;;;;;;2.17;0.90;;;7.10;99.90;;;;;;4933312;28;20055;-81
2023/04/02 06:45:04;;;;;;;1.45;0.90;;;7.10;99.90;;;;;;4933170;28;20042;-80
2023/04/02 06:47:42;;;;;;;2.83;1.13;;;7.10;99.90;;;;;;4931586;29;20035;-80
2023/04/02 06:50:12;;;;;;;4.03;1.10;;;7.10;99.90;;;;;;4934937;29;20039;-81
2023/04/02 06:52:55;;;;;;;2.83;1.20;;;7.10;99.90;;;;;;4927810;28;20929;-82
2023/04/02 06:55:38;;;;;;;2.77;1.10;;;7.20;99.90;;;;;;4924472;29;20036;-81
2023/04/02 06:58:04;;;;;;;1.87;1.00;;;7.30;99.90;;;;;;4930618;29;20032;-82
2023/04/02 07:00:41;;;;;;;3.60;1.13;;;7.50;99.90;;;;;;4930262;28;20038;-82
2023/04/02 07:03:14;;;;;;;3.67;1.10;;;7.50;99.90;;;;;;4926613;29;20043;-82
2023/04/02 07:05:40;;;;;;;2.80;1.00;;;7.60;99.90;;;;;;4927932;28;20079;-82
2023/04/02 07:08:06;;;;;;;3.83;1.10;;;7.60;99.90;;;;;;4930251;28;20027;-82
2023/04/02 07:10:32;;;;;;;2.80;1.30;;;7.60;99.90;;;;;;4929853;29;20034;-80
2023/04/02 07:13:01;;;;;;;4.03;1.23;;;7.80;99.90;;;;;;4928401;28;20042;-81
2023/04/02 07:15:27;;;;;;;2.97;1.00;;;7.80;99.90;;;;;;4929465;29;20042;-82
2023/04/02 07:17:57;;;;;;;2.97;1.20;;;7.80;99.90;;;;;;4931000;29;20043;-82
2023/04/02 07:20:33;;;;;;;2.67;1.10;;;7.80;99.90;;;;;;4931141;28;20054;-82
2023/04/02 07:22:58;;;;;;;3.53;1.10;;;7.80;99.90;;;;;;4929166;29;20086;-81
2023/04/02 07:25:25;;;;;;;3.53;2.43;;;7.90;99.90;;;;;;4928780;28;20031;-81
2023/04/02 07:27:52;;;;;;;1.90;1.10;;;8.00;99.90;;;;;;4930101;29;20043;-82
2023/04/02 07:30:18;;;;;;;3.20;1.10;;;8.00;99.90;;;;;;4933298;29;20035;-81
2023/04/02 07:32:44;;;;;;;3.20;1.10;;;8.10;99.90;;;;;;4931729;29;20114;-82
2023/04/02 07:35:11;;;;;;;3.70;1.03;;;8.30;99.90;;;;;;4932236;28;20028;-81
2023/04/02 07:37:37;;;;;;;3.23;1.20;;;8.40;99.90;;;;;;4932919;29;20038;-81
2023/04/02 07:40:25;;;;;;;4.10;1.20;;;8.40;99.90;;;;;;4932502;29;20035;-81
2023/04/02 07:42:50;;;;;;;4.90;1.30;;;8.60;99.90;;;;;;4932123;28;20495;-81
2023/04/02 07:45:16;;;;;;;3.40;1.30;;;8.70;99.90;;;;;;4932703;28;20039;-81
2023/04/02 07:47:43;;;;;;;1.80;1.03;;;8.70;99.90;;;;;;4932795;28;20073;-81
2023/04/02 07:50:09;;;;;;;5.03;1.30;;;8.70;99.90;;;;;;4916300;29;20028;-85
2023/04/02 07:52:41;;;;;;;4.17;1.30;;;8.80;99.90;;;;;;4932627;29;20047;-84
2023/04/02 07:55:11;;;;;;;3.37;1.10;;;8.80;99.90;;;;;;4932951;29;20044;-84
2023/04/02 07:57:40;;;;;;;7.17;1.20;;;8.90;99.90;;;;;;4933685;29;20095;-85
2023/04/02 08:00:08;;;;;;;2.50;1.30;;;8.90;99.90;;;;;;4916403;28;20031;-85
2023/04/02 08:02:34;;;;;;;2.20;1.03;;;8.90;99.90;;;;;;4916986;29;20039;-84
2023/04/02 08:05:00;;;;;;;4.50;1.63;;;8.90;99.90;;;;;;4935823;29;21451;-85
2023/04/02 08:07:26;;;;;;;2.07;1.10;;;8.80;99.90;;;;;;4936670;29;20046;-85
2023/04/02 08:09:52;;;;;;;3.90;1.13;;;8.80;99.90;;;;;;4936318;29;20062;-85
2023/04/02 08:12:17;;;;;;;2.77;1.10;;;8.80;99.90;;;;;;4934579;29;20031;-85
2023/04/02 08:14:46;;;;;;;2.23;1.03;;;8.80;99.90;;;;;;4904853;29;20502;-85
2023/04/02 08:17:12;;;;;;;2.20;1.20;;;8.90;99.90;;;;;;4932204;29;20042;-85
2023/04/02 08:19:38;;;;;;;2.43;1.10;;;8.90;99.90;;;;;;4934668;29;20031;-86
2023/04/02 08:22:04;;;;;;;3.70;1.30;;;9.00;99.90;;;;;;4934844;28;20047;-84
2023/04/02 08:24:29;;;;;;;2.40;1.00;;;9.00;99.90;;;;;;4933517;29;20063;-87
2023/04/02 08:26:55;;;;;;;3.50;1.57;;;8.90;99.90;;;;;;4917418;29;20127;-86
2023/04/02 08:29:20;;;;;;;2.47;1.50;;;8.90;99.90;;;;;;4934680;29;20032;-86
2023/04/02 08:31:46;;;;;;;2.93;1.23;;;8.90;99.90;;;;;;4935013;29;20190;-73
2023/04/02 08:34:12;;;;;;;2.20;1.30;;;8.90;99.90;;;;;;4933731;28;20471;-84
2023/04/02 08:36:40;;;;;;;3.07;1.20;;;9.00;99.90;;;;;;4933219;29;20035;-84
2023/04/02 08:39:10;;;;;;;3.83;1.40;;;9.20;99.90;;;;;;4933714;28;20074;-85
2023/04/02 08:41:41;;;;;;;4.13;1.73;;;9.30;99.90;;;;;;4934120;29;20055;-85
2023/04/02 08:44:15;;;;;;;3.07;1.20;;;9.40;99.90;;;;;;4935282;29;20070;-84
2023/04/02 08:47:04;;;;;;;2.22;1.08;;;9.50;99.90;;;;;;4935293;28;20390;-85
2023/04/02 08:49:49;;;;;;;2.73;1.20;;;9.50;99.90;;;;;;4937408;29;20038;-89
2023/04/02 08:52:23;;;;;;;;;;;9.60;99.90;;;;;;4936038;29;20035;-86
2023/04/02 08:54:49;;;;;;;2.57;1.20;;;9.70;99.90;;;;;;4935152;29;20338;-87
2023/04/02 08:57:30;;;;;;;3.47;1.20;;;9.80;99.90;;;;;;4936612;29;20038;-86
2023/04/02 09:00:24;;;;;;;3.33;1.10;;;10.00;99.90;;;;;;4936455;29;20038;-86
2023/04/02 09:03:07;;;;;;;3.77;1.27;;;10.00;99.90;;;;;;4934354;29;20039;-87
2023/04/02 09:05:38;;;;;;;2.73;1.10;;;10.10;99.90;;;;;;4937091;29;20697;-86
2023/04/02 09:08:13;;;;;;;3.13;1.17;;;10.10;99.90;;;;;;4935720;29;20542;-87
2023/04/02 09:10:49;;;;;;;4.83;1.20;;;10.10;99.90;;;;;;4935873;29;20379;-86
2023/04/02 09:13:21;;;;;;;3.53;0.83;;;10.20;99.90;;;;;;4936385;29;20019;-86
2023/04/02 09:15:48;;;;;;;1.87;1.07;;;10.20;99.90;;;;;;4936798;28;20042;-86
2023/04/02 09:18:17;;;;;;;1.97;0.97;;;10.20;99.90;;;;;;4935778;28;20035;-87
2023/04/02 09:20:44;;;;;;;2.43;0.93;;;10.30;99.90;;;;;;4936155;29;20039;-86
2023/04/02 09:23:21;;;;;;;3.73;1.00;;;10.40;99.90;;;;;;4935179;29;20510;-87
2023/04/02 09:25:50;;;;;;;2.10;1.00;;;10.50;99.90;;;;;;4937486;28;20028;-87
2023/04/02 09:28:19;;;;;;;2.73;1.10;;;10.60;99.90;;;;;;4937819;29;20042;-87
2023/04/02 09:31:03;;;;;;;3.17;1.00;;;10.70;99.90;;;;;;4941632;29;20106;-86
2023/04/02 09:33:48;;;;;;;2.00;1.00;;;10.70;99.90;;;;;;4937948;29;20024;-85
2023/04/02 09:36:35;;;;;;;2.43;1.17;;;10.80;99.90;;;;;;4939041;29;20031;-86
2023/04/02 09:39:19;;;;;;;1.67;1.00;;;10.80;99.90;;;;;;4921811;29;20035;-86
2023/04/02 09:41:46;;;;;;;1.70;1.10;;;10.90;99.90;;;;;;4918389;29;20062;-87
2023/04/02 09:44:19;;;;;;;1.80;0.77;;;10.90;99.90;;;;;;4918157;29;20475;-87
2023/04/02 09:46:51;;;;;;;1.90;1.00;;;10.90;99.90;;;;;;4921239;29;20106;-86
2023/04/02 09:49:20;;;;;;;3.33;1.13;;;10.90;99.90;;;;;;4917907;29;20039;-87
2023/04/02 09:52:10;;;;;;;3.67;1.30;;;10.90;99.90;;;;;;4917546;29;20024;-86
2023/04/02 09:54:42;;;;;;;3.57;1.00;;;10.90;99.90;;;;;;4914894;29;21240;-86
2023/04/02 09:57:26;;;;;;;1.53;0.90;;;10.90;99.90;;;;;;4915740;29;20043;-86
2023/04/02 10:00:15;;;;;;;3.60;0.95;;;10.90;99.90;;;;;;4916317;29;20035;-86
2023/04/02 10:02:42;;;;;;;2.13;0.97;;;10.90;99.90;;;;;;4915384;29;20079;-86
2023/04/02 10:05:22;;;;;;;2.03;1.00;;;10.90;99.90;;;;;;4916997;29;20062;-86
2023/04/02 10:07:54;;;;;;;1.58;0.65;;;10.90;99.90;;;;;;4914439;29;20047;-87
2023/04/02 10:10:36;;;;;;;2.07;1.10;;;10.90;99.90;;;;;;4916058;29;20112;-87
2023/04/02 10:13:42;;;;;;;1.57;1.17;;;10.90;99.90;;;;;;4916311;29;20403;-86
2023/04/02 10:16:38;;;;;;;2.05;0.70;;;11.00;99.90;;;;;;4883832;29;20043;-88
2023/04/02 10:19:12;;;;;;;;;;;11.10;99.90;;;;;;4914765;29;20039;-87
2023/04/02 10:21:41;;;;;;;1.50;0.90;;;11.20;99.90;;;;;;4915435;29;19923;-87
2023/04/02 10:24:15;;;;;;;1.10;0.70;;;11.40;99.90;;;;;;4914505;29;20032;-87
2023/04/02 10:27:00;;;;;;;2.38;0.80;;;11.40;99.90;;;;;;4915577;29;20163;-87
2023/04/02 10:29:32;;;;;;;1.77;0.75;;;11.60;99.90;;;;;;4915334;29;20672;-87
2023/04/02 10:32:13;;;;;;;1.70;0.80;;;11.90;99.90;;;;;;4915947;29;20031;-87
2023/04/02 10:34:53;;;;;;;1.45;0.80;;;12.10;99.90;;;;;;4916001;29;20093;-86
2023/04/02 10:37:47;;;;;;;3.75;0.90;;;12.20;99.90;;;;;;4915880;29;20054;-87
2023/04/02 10:40:44;;;;;;;1.20;0.52;;;12.50;99.90;;;;;;4915626;29;20100;-88
2023/04/02 10:43:28;;;;;;;2.03;0.85;;;12.60;99.90;;;;;;4918544;29;20059;-87
2023/04/02 10:46:08;;;;;;;1.17;0.60;;;12.80;99.90;;;;;;4932580;29;20069;-87
2023/04/02 10:48:43;;;;;;;0.50;0.50;;;12.80;99.90;;;;;;4934284;29;20079;-87
2023/04/02 10:51:31;;;;;;;1.85;0.80;;;12.80;99.90;;;;;;4935163;29;20034;-88
2023/04/02 10:54:20;;;;;;;0.70;0.68;;;12.70;99.90;;;;;;4934350;29;20146;-87
2023/04/02 10:56:48;;;;;;;2.55;0.77;;;12.50;99.90;;;;;;4934866;29;20019;-88
2023/04/02 10:59:20;;;;;;;1.80;0.80;;;12.50;99.90;;;;;;4930870;29;20066;-86
2023/04/02 11:01:47;;;;;;;1.02;0.68;;;12.40;99.90;;;;;;4933445;29;20063;-89
2023/04/02 11:04:41;;;;;;;1.35;0.73;;;12.20;99.90;;;;;;4915520;29;20043;-86
2023/04/02 11:07:25;;;;;;;1.60;1.25;;;12.10;99.90;;;;;;4922781;29;20039;-87
2023/04/02 11:09:54;;;;;;;1.65;0.70;;;11.90;99.90;;;;;;4929880;29;20036;-86
2023/04/02 11:12:45;;;;;;;2.78;0.90;;;11.80;99.90;;;;;;4928250;28;20031;-86
2023/04/02 11:15:18;;;;;;;1.70;0.88;;;11.60;99.90;;;;;;4930459;29;20466;-85
2023/04/02 11:17:45;;;;;;;2.13;0.90;;;11.50;99.90;;;;;;4931635;29;20047;-85
2023/04/02 11:20:50;;;;;;;3.58;1.10;;;11.40;99.90;;;;;;4933258;28;20039;-87
2023/04/02 11:23:20;;;;;;;2.95;1.00;;;11.40;99.90;;;;;;4932800;29;20054;-88
2023/04/02 11:25:46;;;;;;;1.75;1.10;;;11.30;99.90;;;;;;4934076;29;20031;-87
2023/04/02 11:28:26;;;;;;;2.47;1.17;;;11.20;99.90;;;;;;4932832;29;20046;-86
2023/04/02 11:30:52;;;;;;;2.67;1.20;;;11.20;99.90;;;;;;4916636;29;20039;-86
2023/04/02 11:33:29;;;;;;;2.15;1.00;;;11.30;99.90;;;;;;4933095;29;20040;-86
2023/04/02 11:35:55;;;;;;;2.10;0.90;;;11.40;99.90;;;;;;4933825;29;20042;-87
2023/04/02 11:38:24;;;;;;;3.60;1.88;;;11.60;99.90;;;;;;4934224;29;20040;-86
2023/04/02 11:40:54;;;;;;;0.98;0.73;;;11.80;99.90;;;;;;4937666;29;20500;-86
2023/04/02 11:43:31;;;;;;;1.52;0.70;;;11.90;99.90;;;;;;4936074;28;20059;-86
2023/04/02 11:46:17;;;;;;;2.03;0.70;;;12.00;99.90;;;;;;4937749;28;20054;-86
2023/04/02 11:48:43;;;;;;;1.27;1.00;;;12.20;99.90;;;;;;4929329;29;20035;-87
2023/04/02 11:51:23;;;;;;;1.40;0.70;;;12.50;99.90;;;;;;4936023;29;20075;-87
2023/04/02 11:53:51;;;;;;;1.90;0.80;;;12.70;99.90;;;;;;4919475;29;20086;-86
2023/04/02 11:56:46;;;;;;;2.83;1.20;;;12.90;99.90;;;;;;4937423;29;20122;-87
2023/04/02 11:59:15;;;;;;;1.23;0.80;;;13.20;99.90;;;;;;4937174;29;20093;-87
2023/04/02 12:02:01;;;;;;;1.52;0.90;;;13.70;99.90;;;;;;4935045;29;20122;-85
2023/04/02 12:04:57;;;;;;;1.58;0.60;;;14.10;99.90;;;;;;4936064;29;20036;-85
2023/04/02 12:07:33;;;;;;;1.63;0.70;;;14.00;99.90;;;;;;4935709;29;20027;-86
2023/04/02 12:10:14;;;;;;;1.13;0.80;;;13.90;99.90;;;;;;4937196;29;20163;-86
2023/04/02 12:12:41;;;;;;;0.90;0.60;;;13.80;99.90;;;;;;4936158;29;20039;-86
2023/04/02 12:15:33;;;;;;;2.15;0.90;;;13.70;99.90;;;;;;4936768;29;20035;-86
2023/04/02 12:18:21;;;;;;;1.88;0.80;;;13.40;99.90;;;;;;4930182;29;20047;-87
2023/04/02 12:20:54;;;;;;;1.27;0.90;;;13.10;99.90;;;;;;4936550;29;20050;-87
2023/04/02 12:23:29;;;;;;;1.95;0.77;;;12.90;99.90;;;;;;4936854;29;20046;-87
2023/04/02 12:26:02;;;;;;;1.08;0.68;;;12.80;99.90;;;;;;4937120;29;20031;-87
2023/04/02 12:28:30;;;;;;;1.20;0.80;;;12.80;99.90;;;;;;4936931;29;20036;-88
2023/04/02 12:31:07;;;;;;;0.95;0.73;;;12.80;99.90;;;;;;4919684;29;20027;-88
2023/04/02 12:33:38;;;;;;;1.48;0.80;;;12.90;99.90;;;;;;4935553;28;20031;-87
2023/04/02 12:36:13;;;;;;;2.85;0.77;;;13.20;99.90;;;;;;4937122;28;20019;-88
2023/04/02 12:38:52;;;;;;;;;;;13.50;99.90;;;;;;4936270;29;20128;-87
2023/04/02 12:41:28;;;;;;;1.45;0.90;;;13.70;99.90;;;;;;4936035;28;19915;-86
2023/04/02 12:44:16;;;;;;;0.82;0.80;;;13.80;99.90;;;;;;4935774;29;20028;-85
2023/04/02 12:46:45;;;;;;;0.80;0.70;;;13.60;99.90;;;;;;4936580;28;20478;-85
2023/04/02 12:49:33;;;;;;;2.78;0.90;;;13.30;99.90;;;;;;4919592;29;20023;-85
2023/04/02 12:52:02;;;;;;;3.40;0.85;;;13.20;99.90;;;;;;4936422;29;20924;-85
2023/04/02 12:54:35;;;;;;;1.50;0.90;;;13.10;99.90;;;;;;4919355;29;20119;-87
2023/04/02 12:57:31;;;;;;;1.00;0.90;;;12.70;99.90;;;;;;4936318;29;20020;-89
2023/04/02 13:00:26;;;;;;;;;;;12.10;99.90;;;;;;4936376;28;20027;-87
2023/04/02 13:03:14;;;;;;;2.50;1.10;;;11.60;99.90;;;;;;4934839;29;19934;-88
2023/04/02 13:05:51;;;;;;;1.92;1.30;;;11.20;99.90;;;;;;4935067;29;20035;-89
2023/04/02 13:08:29;;;;;;;1.73;1.20;;;10.90;99.90;;;;;;4935312;29;20150;-89
2023/04/02 13:10:58;;;;;;;4.63;2.83;;;10.60;99.90;;;;;;4936462;29;20046;-88
2023/04/02 13:13:33;;;;;;;6.53;3.20;;;10.50;99.90;;;;;;4935319;29;20066;-88
2023/04/02 13:15:59;;;;;;;;;;;10.40;99.90;;;;;;4935623;29;20031;-88
2023/04/02 13:18:25;;;;;;;6.13;3.93;;;10.40;99.90;;;;;;4934767;29;20436;-88
2023/04/02 13:21:02;;;;;;;5.37;3.07;;;10.30;99.90;;;;;;4935288;29;20028;-87
2023/04/02 13:23:30;;;;;;;5.17;3.60;;;10.20;99.90;;;;;;4935991;29;20352;-87
2023/04/02 13:26:09;;;;;;;6.40;4.47;;;10.30;99.90;;;;;;4936044;29;21297;-87
2023/04/02 13:28:35;;;;;;;3.20;2.33;;;10.30;99.90;;;;;;4935492;29;20432;-87
2023/04/02 13:31:00;;;;;;;4.07;2.30;;;10.50;99.90;;;;;;4935570;29;20027;-86
2023/04/02 13:33:26;;;;;;;5.90;4.50;;;10.50;99.90;;;;;;4935053;28;20024;-87
2023/04/02 13:35:52;;;;;;;14.00;8.43;;;10.60;99.90;;;;;;4935966;29;20027;-87
2023/04/02 13:38:17;;;;;;;10.17;5.33;;;10.70;99.90;;;;;;4935261;29;20036;-87